createdAt,value
2022-12-01T00:00:50.165Z,263.40
2022-12-01T00:01:50.298Z,269.30
2022-12-01T00:02:50.314Z,269.00
2022-12-01T00:03:50.151Z,258.60
2022-12-01T00:04:50.121Z,275.90
2022-12-01T00:05:50.138Z,293.10
2022-12-01T00:06:50.097Z,272.30
2022-12-01T00:07:50.264Z,268.30
2022-12-01T00:08:50.073Z,258.90
2022-12-01T00:09:50.261Z,265.00
2022-12-01T00:10:50.057Z,257.30
2022-12-01T00:11:50.071Z,259.80
2022-12-01T00:12:50.028Z,260.50
2022-12-01T00:13:50.064Z,299.60
2022-12-01T00:14:50.019Z,289.90
2022-12-01T00:15:50.022Z,295.50
2022-12-01T00:16:50.078Z,279.40
2022-12-01T00:17:50.003Z,293.10
2022-12-01T00:18:50.329Z,280.50
2022-12-01T00:19:50.186Z,279.40
2022-12-01T00:20:49.955Z,300.20
2022-12-01T00:21:49.967Z,298.10
2022-12-01T00:22:49.930Z,282.10
2022-12-01T00:23:49.946Z,321.60
2022-12-01T00:24:49.926Z,369.20
2022-12-01T00:25:49.934Z,341.10
2022-12-01T00:26:49.883Z,344.70
2022-12-01T00:27:49.918Z,339.90
2022-12-01T00:28:49.886Z,331.20
2022-12-01T00:29:50.219Z,331.20
2022-12-01T00:30:49.868Z,326.40
2022-12-01T00:31:50.748Z,363.60
2022-12-01T00:32:49.824Z,361.30
2022-12-01T00:33:49.841Z,326.90
2022-12-01T00:34:49.827Z,322.40
2022-12-01T00:35:49.827Z,312.90
2022-12-01T00:36:49.800Z,404.10
2022-12-01T00:37:49.800Z,333.90
2022-12-01T00:38:49.762Z,353.50
2022-12-01T00:39:50.127Z,355.90
2022-12-01T00:40:49.765Z,385.80
2022-12-01T00:41:49.767Z,321.30
2022-12-01T00:42:49.725Z,346.60
2022-12-01T00:43:49.729Z,329.80
2022-12-01T00:44:49.701Z,309.10
2022-12-01T00:45:49.758Z,290.60
2022-12-01T00:46:54.347Z,316.30
2022-12-01T00:47:49.710Z,340.00
2022-12-01T00:48:49.651Z,330.00
2022-12-01T00:49:49.915Z,309.10
2022-12-01T00:50:49.626Z,327.70
2022-12-01T00:51:49.664Z,356.10
2022-12-01T00:52:49.607Z,317.10
2022-12-01T00:53:49.631Z,310.90
2022-12-01T00:54:49.586Z,320.00
2022-12-01T00:55:49.602Z,312.50
2022-12-01T00:56:49.565Z,297.50
2022-12-01T00:57:49.604Z,285.40
2022-12-01T00:58:49.542Z,317.40
2022-12-01T00:59:49.916Z,328.70
2022-12-01T01:00:49.555Z,351.20
2022-12-01T01:01:49.646Z,336.10
2022-12-01T01:02:49.592Z,350.30
2022-12-01T01:03:49.515Z,331.40
2022-12-01T01:04:49.502Z,308.30
2022-12-01T01:05:49.496Z,309.20
2022-12-01T01:06:49.460Z,303.40
2022-12-01T01:07:49.578Z,333.30
2022-12-01T01:08:49.450Z,334.10
2022-12-01T01:09:49.639Z,312.80
2022-12-01T01:10:49.422Z,346.30
2022-12-01T01:11:49.448Z,330.80
2022-12-01T01:12:49.399Z,333.80
2022-12-01T01:13:49.434Z,351.50
2022-12-01T01:14:49.375Z,341.60
2022-12-01T01:15:49.388Z,347.30
2022-12-01T01:16:49.380Z,347.60
2022-12-01T01:17:49.379Z,312.70
2022-12-01T01:18:49.333Z,343.20
2022-12-01T01:19:49.648Z,353.10
2022-12-01T01:20:49.316Z,329.10
2022-12-01T01:21:49.349Z,322.70
2022-12-01T01:22:49.292Z,317.80
2022-12-01T01:23:49.307Z,343.70
2022-12-01T01:24:49.432Z,338.50
2022-12-01T01:25:49.280Z,332.30
2022-12-01T01:26:49.250Z,332.40
2022-12-01T01:27:49.265Z,315.10
2022-12-01T01:28:49.235Z,296.20
2022-12-01T01:29:49.467Z,300.50
2022-12-01T01:30:49.287Z,284.70
2022-12-01T01:31:49.220Z,283.80
2022-12-01T01:32:49.188Z,306.90
2022-12-01T01:33:49.177Z,331.70
2022-12-01T01:34:49.220Z,332.60
2022-12-01T01:35:49.175Z,328.30
2022-12-01T01:36:49.164Z,308.90
2022-12-01T01:37:49.143Z,313.20
2022-12-01T01:38:49.165Z,314.00
2022-12-01T01:39:49.338Z,312.60
2022-12-01T01:40:49.121Z,316.30
2022-12-01T01:41:49.169Z,339.60
2022-12-01T01:42:49.119Z,334.80
2022-12-01T01:43:49.098Z,325.00
2022-12-01T01:44:49.090Z,313.70
2022-12-01T01:45:49.108Z,324.80
2022-12-01T01:46:49.079Z,328.60
2022-12-01T01:47:49.034Z,336.30
2022-12-01T01:48:49.053Z,315.60
2022-12-01T01:49:49.197Z,318.50
2022-12-01T01:50:49.036Z,342.30
2022-12-01T01:51:48.982Z,347.20
2022-12-01T01:52:49.010Z,316.50
2022-12-01T01:53:48.967Z,314.30
2022-12-01T01:54:48.975Z,332.90
2022-12-01T01:55:48.960Z,333.90
2022-12-01T01:56:48.957Z,299.70
2022-12-01T01:57:48.943Z,327.40
2022-12-01T01:58:48.932Z,325.20
2022-12-01T01:59:49.181Z,298.20
2022-12-01T02:00:48.936Z,333.80
2022-12-01T02:01:48.938Z,304.30
2022-12-01T02:02:48.988Z,310.90
2022-12-01T02:03:48.875Z,310.30
2022-12-01T02:04:48.877Z,292.20
2022-12-01T02:05:48.869Z,274.80
2022-12-01T02:06:48.852Z,275.90
2022-12-01T02:07:48.949Z,283.20
2022-12-01T02:08:48.844Z,286.30
2022-12-01T02:09:49.173Z,274.80
2022-12-01T02:10:48.840Z,286.30
2022-12-01T02:11:48.872Z,303.80
2022-12-01T02:12:48.799Z,303.40
2022-12-01T02:13:48.751Z,299.00
2022-12-01T02:14:48.788Z,291.00
2022-12-01T02:15:48.737Z,314.20
2022-12-01T02:16:48.867Z,279.90
2022-12-01T02:17:48.710Z,297.10
2022-12-01T02:18:48.723Z,269.30
2022-12-01T02:19:49.146Z,292.10
2022-12-01T02:20:48.710Z,274.70
2022-12-01T02:21:48.669Z,261.90
2022-12-01T02:22:53.592Z,241.50
2022-12-01T02:23:48.652Z,237.00
2022-12-01T02:24:48.666Z,270.90
2022-12-01T02:25:48.652Z,253.60
2022-12-01T02:26:48.643Z,259.20
2022-12-01T02:27:48.625Z,250.80
2022-12-01T02:28:48.630Z,249.20
2022-12-01T02:29:48.766Z,243.60
2022-12-01T02:30:48.712Z,243.00
2022-12-01T02:31:48.570Z,269.80
2022-12-01T02:32:48.574Z,236.70
2022-12-01T02:33:48.564Z,237.00
2022-12-01T02:34:48.552Z,232.90
2022-12-01T02:35:48.522Z,257.30
2022-12-01T02:36:48.548Z,267.80
2022-12-01T02:37:48.506Z,268.30
2022-12-01T02:38:48.525Z,251.50
2022-12-01T02:39:48.872Z,260.30
2022-12-01T02:40:48.506Z,252.50
2022-12-01T02:41:48.485Z,244.20
2022-12-01T02:42:48.475Z,267.80
2022-12-01T02:43:48.454Z,278.90
2022-12-01T02:44:48.450Z,272.40
2022-12-01T02:45:48.498Z,301.20
2022-12-01T02:46:48.449Z,283.30
2022-12-01T02:47:48.390Z,300.40
2022-12-01T02:48:48.410Z,320.60
2022-12-01T02:49:48.875Z,292.80
2022-12-01T02:50:48.382Z,277.90
2022-12-01T02:51:48.351Z,302.20
2022-12-01T02:52:48.392Z,291.10
2022-12-01T02:53:48.355Z,287.80
2022-12-01T02:54:48.366Z,294.60
2022-12-01T02:55:48.317Z,277.30
2022-12-01T02:56:48.323Z,294.00
2022-12-01T02:57:48.309Z,309.10
2022-12-01T02:58:48.298Z,341.70
2022-12-01T02:59:48.632Z,308.40
2022-12-01T03:00:48.281Z,295.00
2022-12-01T03:01:48.306Z,304.00
2022-12-01T03:02:48.363Z,308.50
2022-12-01T03:03:48.221Z,298.70
2022-12-01T03:04:48.250Z,305.00
2022-12-01T03:05:48.202Z,289.20
2022-12-01T03:06:48.218Z,285.30
2022-12-01T03:07:48.284Z,282.40
2022-12-01T03:08:48.212Z,317.00
2022-12-01T03:09:48.515Z,319.90
2022-12-01T03:10:48.180Z,303.20
2022-12-01T03:11:48.139Z,310.00
2022-12-01T03:12:48.160Z,324.10
2022-12-01T03:13:48.129Z,319.80
2022-12-01T03:14:48.130Z,316.80
2022-12-01T03:15:48.213Z,319.90
2022-12-01T03:16:48.129Z,310.70
2022-12-01T03:17:48.085Z,326.70
2022-12-01T03:18:48.137Z,306.10
2022-12-01T03:19:48.490Z,325.30
2022-12-01T03:20:48.118Z,309.60
2022-12-01T03:21:48.034Z,335.90
2022-12-01T03:22:48.047Z,314.20
2022-12-01T03:23:48.014Z,289.80
2022-12-01T03:24:48.039Z,319.30
2022-12-01T03:25:47.994Z,326.40
2022-12-01T03:26:48.047Z,300.70
2022-12-01T03:28:13.860Z,315.50
2022-12-01T03:28:48.004Z,325.80
2022-12-01T03:29:48.325Z,339.30
2022-12-01T03:30:48.063Z,348.70
2022-12-01T03:31:49.034Z,321.10
2022-12-01T03:32:47.944Z,314.30
2022-12-01T03:33:47.970Z,352.80
2022-12-01T03:34:47.941Z,311.70
2022-12-01T03:35:47.972Z,349.20
2022-12-01T03:36:47.904Z,357.40
2022-12-01T03:37:47.868Z,331.60
2022-12-01T03:38:47.878Z,351.60
2022-12-01T03:39:48.238Z,314.50
2022-12-01T03:40:47.870Z,340.00
2022-12-01T03:41:47.840Z,347.70
2022-12-01T03:42:47.875Z,322.90
2022-12-01T03:43:47.820Z,332.90
2022-12-01T03:44:47.835Z,327.60
2022-12-01T03:45:47.805Z,330.70
2022-12-01T03:46:47.838Z,342.10
2022-12-01T03:47:47.760Z,358.60
2022-12-01T03:48:47.784Z,340.40
2022-12-01T03:49:48.100Z,312.30
2022-12-01T03:50:47.763Z,333.80
2022-12-01T03:51:47.716Z,338.50
2022-12-01T03:52:47.752Z,286.80
2022-12-01T03:53:47.695Z,286.80
2022-12-01T03:54:47.705Z,295.60
2022-12-01T03:55:47.700Z,285.50
2022-12-01T03:56:47.684Z,255.60
2022-12-01T03:57:47.667Z,270.20
2022-12-01T03:58:47.685Z,257.00
2022-12-01T03:59:47.868Z,253.10
2022-12-01T04:00:47.651Z,269.60
2022-12-01T04:01:47.684Z,241.60
2022-12-01T04:02:47.644Z,260.60
2022-12-01T04:03:47.594Z,211.40
2022-12-01T04:04:47.601Z,218.80
2022-12-01T04:05:47.585Z,226.00
2022-12-01T04:06:47.604Z,249.50
2022-12-01T04:07:47.649Z,223.70
2022-12-01T04:08:47.544Z,241.20
2022-12-01T04:09:47.867Z,203.60
2022-12-01T04:10:47.537Z,248.00
2022-12-01T04:11:47.555Z,229.40
2022-12-01T04:12:47.494Z,232.90
2022-12-01T04:13:47.504Z,223.20
2022-12-01T04:14:47.497Z,223.10
2022-12-01T04:15:47.557Z,220.50
2022-12-01T04:16:47.470Z,239.20
2022-12-01T04:17:47.482Z,237.80
2022-12-01T04:18:47.427Z,257.50
2022-12-01T04:19:47.835Z,242.20
2022-12-01T04:20:47.442Z,225.10
2022-12-01T04:21:47.423Z,218.00
2022-12-01T04:22:47.428Z,208.90
2022-12-01T04:23:47.400Z,204.00
2022-12-01T04:24:47.371Z,211.60
2022-12-01T04:25:47.399Z,213.40
2022-12-01T04:26:47.348Z,170.20
2022-12-01T04:27:47.362Z,202.40
2022-12-01T04:28:47.345Z,212.90
2022-12-01T04:29:47.894Z,224.90
2022-12-01T04:30:47.300Z,211.70
2022-12-01T04:31:47.392Z,228.20
2022-12-01T04:32:47.304Z,213.10
2022-12-01T04:33:47.319Z,224.40
2022-12-01T04:34:47.277Z,213.40
2022-12-01T04:35:47.284Z,208.20
2022-12-01T04:36:47.255Z,214.70
2022-12-01T04:37:47.254Z,214.10
2022-12-01T04:38:47.223Z,218.50
2022-12-01T04:39:47.782Z,200.60
2022-12-01T04:40:47.202Z,177.00
2022-12-01T04:41:47.211Z,213.50
2022-12-01T04:42:47.179Z,224.30
2022-12-01T04:43:47.203Z,223.00
2022-12-01T04:44:47.183Z,212.50
2022-12-01T04:45:47.170Z,227.50
2022-12-01T04:46:47.227Z,205.70
2022-12-01T04:47:47.149Z,239.40
2022-12-01T04:48:47.118Z,228.90
2022-12-01T04:49:47.582Z,223.70
2022-12-01T04:50:47.108Z,218.70
2022-12-01T04:51:47.132Z,204.70
2022-12-01T04:52:47.069Z,200.00
2022-12-01T04:53:47.085Z,213.00
2022-12-01T04:54:47.052Z,215.00
2022-12-01T04:55:47.089Z,180.80
2022-12-01T04:56:47.029Z,189.40
2022-12-01T04:57:47.045Z,179.20
2022-12-01T04:58:47.039Z,226.50
2022-12-01T04:59:47.201Z,228.40
2022-12-01T05:00:47.105Z,217.70
2022-12-01T05:01:47.099Z,223.60
2022-12-01T05:02:46.985Z,218.30
2022-12-01T05:03:46.997Z,221.00
2022-12-01T05:04:46.951Z,214.50
2022-12-01T05:05:46.970Z,234.30
2022-12-01T05:06:46.942Z,241.90
2022-12-01T05:07:47.040Z,242.30
2022-12-01T05:08:46.955Z,233.10
2022-12-01T05:09:47.225Z,237.00
2022-12-01T05:10:46.903Z,227.40
2022-12-01T05:11:46.901Z,232.90
2022-12-01T05:12:46.903Z,230.60
2022-12-01T05:13:46.885Z,237.80
2022-12-01T05:14:46.885Z,242.70
2022-12-01T05:15:46.882Z,236.60
2022-12-01T05:16:46.844Z,238.80
2022-12-01T05:17:46.861Z,227.20
2022-12-01T05:18:46.856Z,202.10
2022-12-01T05:19:47.167Z,230.70
2022-12-01T05:20:46.802Z,233.00
2022-12-01T05:21:46.797Z,244.80
2022-12-01T05:23:04.859Z,247.10
2022-12-01T05:23:46.781Z,227.10
2022-12-01T05:24:46.761Z,213.60
2022-12-01T05:25:46.768Z,232.50
2022-12-01T05:26:46.719Z,210.20
2022-12-01T05:27:46.765Z,235.40
2022-12-01T05:28:46.699Z,230.90
2022-12-01T05:29:46.896Z,208.10
2022-12-01T05:30:46.740Z,214.70
2022-12-01T05:31:46.822Z,227.20
2022-12-01T05:32:46.657Z,231.50
2022-12-01T05:33:46.696Z,231.30
2022-12-01T05:34:46.637Z,227.90
2022-12-01T05:35:46.640Z,219.10
2022-12-01T05:36:46.632Z,246.10
2022-12-01T05:37:46.627Z,251.50
2022-12-01T05:38:46.602Z,258.70
2022-12-01T05:39:46.919Z,261.70
2022-12-01T05:40:46.593Z,235.70
2022-12-01T05:41:46.579Z,220.60
2022-12-01T05:42:46.571Z,222.40
2022-12-01T05:43:46.591Z,244.00
2022-12-01T05:44:46.528Z,263.70
2022-12-01T05:45:46.585Z,256.50
2022-12-01T05:46:46.504Z,231.10
2022-12-01T05:47:46.517Z,216.50
2022-12-01T05:48:46.533Z,239.40
2022-12-01T05:49:46.863Z,258.90
2022-12-01T05:50:46.483Z,274.20
2022-12-01T05:51:46.475Z,280.20
2022-12-01T05:52:46.463Z,266.90
2022-12-01T05:53:46.453Z,275.60
2022-12-01T05:54:46.463Z,275.60
2022-12-01T05:55:46.447Z,284.60
2022-12-01T05:56:46.422Z,249.90
2022-12-01T05:57:46.385Z,257.50
2022-12-01T05:58:46.408Z,282.40
2022-12-01T05:59:46.496Z,276.30
2022-12-01T06:00:46.513Z,266.70
2022-12-01T06:01:46.435Z,269.70
2022-12-01T06:02:46.362Z,259.60
2022-12-01T06:03:46.376Z,257.00
2022-12-01T06:04:46.341Z,256.80
2022-12-01T06:05:46.309Z,287.20
2022-12-01T06:06:46.341Z,265.10
2022-12-01T06:07:46.333Z,261.60
2022-12-01T06:08:46.291Z,260.30
2022-12-01T06:09:46.539Z,272.50
2022-12-01T06:10:46.282Z,273.00
2022-12-01T06:11:50.037Z,284.60
2022-12-01T06:12:46.311Z,286.00
2022-12-01T06:13:46.219Z,255.80
2022-12-01T06:14:46.260Z,234.40
2022-12-01T06:15:46.203Z,236.00
2022-12-01T06:16:46.243Z,252.40
2022-12-01T06:17:46.180Z,217.00
2022-12-01T06:18:46.204Z,232.20
2022-12-01T06:19:46.433Z,244.90
2022-12-01T06:20:46.171Z,241.30
2022-12-01T06:21:46.142Z,219.80
2022-12-01T06:22:46.149Z,255.00
2022-12-01T06:23:46.117Z,241.20
2022-12-01T06:24:46.151Z,254.40
2022-12-01T06:25:46.096Z,251.80
2022-12-01T06:26:46.134Z,268.20
2022-12-01T06:27:46.087Z,245.80
2022-12-01T06:28:46.106Z,271.00
2022-12-01T06:29:46.060Z,244.00
2022-12-01T06:30:46.086Z,231.10
2022-12-01T06:31:46.246Z,281.80
2022-12-01T06:32:46.188Z,266.90
2022-12-01T06:33:46.043Z,253.40
2022-12-01T06:34:46.041Z,270.90
2022-12-01T06:35:45.996Z,262.80
2022-12-01T06:36:46.236Z,262.10
2022-12-01T06:37:45.983Z,266.20
2022-12-01T06:38:45.995Z,267.90
2022-12-01T06:39:45.968Z,261.90
2022-12-01T06:40:45.960Z,262.00
2022-12-01T06:41:45.949Z,268.60
2022-12-01T06:42:45.992Z,270.00
2022-12-01T06:43:45.912Z,264.20
2022-12-01T06:44:45.918Z,244.60
2022-12-01T06:45:45.912Z,260.50
2022-12-01T06:46:45.918Z,236.30
2022-12-01T06:47:45.872Z,235.30
2022-12-01T06:48:45.895Z,265.00
2022-12-01T06:49:45.847Z,280.80
2022-12-01T06:50:45.878Z,268.10
2022-12-01T06:51:45.833Z,265.50
2022-12-01T06:52:45.846Z,252.30
2022-12-01T06:53:45.799Z,246.30
2022-12-01T06:54:45.852Z,259.30
2022-12-01T06:55:45.787Z,243.20
2022-12-01T06:56:45.803Z,222.90
2022-12-01T06:57:45.768Z,256.20
2022-12-01T06:58:45.772Z,252.90
2022-12-01T06:59:45.763Z,246.70
2022-12-01T07:00:51.783Z,250.70
2022-12-01T07:01:45.848Z,261.70
2022-12-01T07:02:45.816Z,275.80
2022-12-01T07:03:45.712Z,251.50
2022-12-01T07:04:45.708Z,257.90
2022-12-01T07:05:45.694Z,260.90
2022-12-01T07:06:45.755Z,253.40
2022-12-01T07:07:45.749Z,245.20
2022-12-01T07:08:45.669Z,267.10
2022-12-01T07:09:45.637Z,257.80
2022-12-01T07:10:45.677Z,268.20
2022-12-01T07:11:45.624Z,265.70
2022-12-01T07:12:45.667Z,247.90
2022-12-01T07:13:45.588Z,246.20
2022-12-01T07:14:45.608Z,214.70
2022-12-01T07:15:45.574Z,232.90
2022-12-01T07:16:45.643Z,232.70
2022-12-01T07:17:45.553Z,236.70
2022-12-01T07:18:45.600Z,249.20
2022-12-01T07:19:45.525Z,242.90
2022-12-01T07:20:45.547Z,266.80
2022-12-01T07:21:45.518Z,250.00
2022-12-01T07:22:45.526Z,249.10
2022-12-01T07:23:45.492Z,257.50
2022-12-01T07:24:45.559Z,260.90
2022-12-01T07:25:45.468Z,264.00
2022-12-01T07:26:45.484Z,261.30
2022-12-01T07:27:45.441Z,247.60
2022-12-01T07:28:45.468Z,235.50
2022-12-01T07:29:45.422Z,254.90
2022-12-01T07:30:45.479Z,258.70
2022-12-01T07:31:45.414Z,241.20
2022-12-01T07:32:45.414Z,235.60
2022-12-01T07:33:45.382Z,242.70
2022-12-01T07:34:45.402Z,251.20
2022-12-01T07:35:45.364Z,257.20
2022-12-01T07:36:45.406Z,244.30
2022-12-01T07:37:45.335Z,235.90
2022-12-01T07:38:45.362Z,257.70
2022-12-01T07:39:45.316Z,221.90
2022-12-01T07:40:45.327Z,240.40
2022-12-01T07:41:45.295Z,243.00
2022-12-01T07:42:45.377Z,242.90
2022-12-01T07:43:45.292Z,249.90
2022-12-01T07:44:45.299Z,254.30
2022-12-01T07:45:45.295Z,250.90
2022-12-01T07:46:45.320Z,255.60
2022-12-01T07:47:45.231Z,258.20
2022-12-01T07:48:45.265Z,260.20
2022-12-01T07:49:45.214Z,254.00
2022-12-01T07:50:45.227Z,237.70
2022-12-01T07:51:45.191Z,248.60
2022-12-01T07:52:45.203Z,257.60
2022-12-01T07:53:45.172Z,237.20
2022-12-01T07:54:45.197Z,221.00
2022-12-01T07:55:45.159Z,250.40
2022-12-01T07:56:45.168Z,229.40
2022-12-01T07:57:45.135Z,258.50
2022-12-01T07:58:45.161Z,238.30
2022-12-01T07:59:45.107Z,246.40
2022-12-01T08:00:45.172Z,256.10
2022-12-01T08:01:45.179Z,243.80
2022-12-01T08:02:45.201Z,247.80
2022-12-01T08:03:45.067Z,238.80
2022-12-01T08:04:45.082Z,250.20
2022-12-01T08:05:45.065Z,258.90
2022-12-01T08:06:45.075Z,263.40
2022-12-01T08:07:45.084Z,250.80
2022-12-01T08:08:45.040Z,228.70
2022-12-01T08:09:45.017Z,238.00
2022-12-01T08:10:45.016Z,251.00
2022-12-01T08:11:44.979Z,260.90
2022-12-01T08:12:45.018Z,249.20
2022-12-01T08:13:44.968Z,258.60
2022-12-01T08:14:44.975Z,262.40
2022-12-01T08:15:44.981Z,249.50
2022-12-01T08:16:44.948Z,248.60
2022-12-01T08:17:44.925Z,252.10
2022-12-01T08:18:44.991Z,254.40
2022-12-01T08:19:44.910Z,260.10
2022-12-01T08:20:44.954Z,250.50
2022-12-01T08:21:44.877Z,254.70
2022-12-01T08:22:44.892Z,254.50
2022-12-01T08:23:44.884Z,252.50
2022-12-01T08:24:44.884Z,255.30
2022-12-01T08:25:44.834Z,233.70
2022-12-01T08:26:44.876Z,247.20
2022-12-01T08:27:44.817Z,250.40
2022-12-01T08:28:44.824Z,256.80
2022-12-01T08:29:44.789Z,238.90
2022-12-01T08:30:44.881Z,265.50
2022-12-01T08:31:44.775Z,260.30
2022-12-01T08:32:44.890Z,241.70
2022-12-01T08:33:44.755Z,247.60
2022-12-01T08:34:47.254Z,260.70
2022-12-01T08:35:44.735Z,253.20
2022-12-01T08:36:44.743Z,256.30
2022-12-01T08:37:44.730Z,254.00
2022-12-01T08:38:44.722Z,266.00
2022-12-01T08:39:44.699Z,268.70
2022-12-01T08:40:44.704Z,268.60
2022-12-01T08:41:44.665Z,286.30
2022-12-01T08:42:44.721Z,258.50
2022-12-01T08:44:01.129Z,263.20
2022-12-01T08:44:44.716Z,263.90
2022-12-01T08:45:44.638Z,244.20
2022-12-01T08:46:44.677Z,265.00
2022-12-01T08:47:44.607Z,296.80
2022-12-01T08:48:44.635Z,272.30
2022-12-01T08:49:44.577Z,283.00
2022-12-01T08:50:44.603Z,264.10
2022-12-01T08:51:44.560Z,235.40
2022-12-01T08:52:44.584Z,255.40
2022-12-01T08:53:45.799Z,269.70
2022-12-01T08:54:44.551Z,264.40
2022-12-01T08:55:44.522Z,265.70
2022-12-01T08:56:44.529Z,262.10
2022-12-01T08:57:44.529Z,270.90
2022-12-01T08:58:44.530Z,260.80
2022-12-01T08:59:44.490Z,284.00
2022-12-01T09:00:44.495Z,275.70
2022-12-01T09:01:44.486Z,272.10
2022-12-01T09:02:44.531Z,279.90
2022-12-01T09:03:44.432Z,276.70
2022-12-01T09:04:44.458Z,279.60
2022-12-01T09:05:44.408Z,260.20
2022-12-01T09:06:44.428Z,271.30
2022-12-01T09:07:44.522Z,293.40
2022-12-01T09:08:44.434Z,262.70
2022-12-01T09:09:44.381Z,274.50
2022-12-01T09:10:44.389Z,262.90
2022-12-01T09:11:44.345Z,265.30
2022-12-01T09:12:44.363Z,230.80
2022-12-01T09:13:44.328Z,252.00
2022-12-01T09:14:44.369Z,264.00
2022-12-01T09:15:44.346Z,232.60
2022-12-01T09:16:44.367Z,249.20
2022-12-01T09:17:44.287Z,255.10
2022-12-01T09:18:44.294Z,274.80
2022-12-01T09:19:44.270Z,257.80
2022-12-01T09:20:44.287Z,246.40
2022-12-01T09:21:44.248Z,242.90
2022-12-01T09:22:44.254Z,251.50
2022-12-01T09:23:44.216Z,256.50
2022-12-01T09:24:44.232Z,232.00
2022-12-01T09:25:44.216Z,267.60
2022-12-01T09:26:44.220Z,255.70
2022-12-01T09:27:44.183Z,234.00
2022-12-01T09:28:44.197Z,247.80
2022-12-01T09:29:44.151Z,247.40
2022-12-01T09:30:44.193Z,273.20
2022-12-01T09:31:44.222Z,283.10
2022-12-01T09:32:44.149Z,261.10
2022-12-01T09:33:44.120Z,281.80
2022-12-01T09:34:44.138Z,273.60
2022-12-01T09:35:44.091Z,254.10
2022-12-01T09:36:44.123Z,256.90
2022-12-01T09:37:44.078Z,252.90
2022-12-01T09:38:44.085Z,252.00
2022-12-01T09:39:44.071Z,245.50
2022-12-01T09:40:44.076Z,241.90
2022-12-01T09:41:44.044Z,245.70
2022-12-01T09:42:44.053Z,251.80
2022-12-01T09:43:44.010Z,248.00
2022-12-01T09:44:44.019Z,246.90
2022-12-01T09:45:44.006Z,244.60
2022-12-01T09:46:44.075Z,239.80
2022-12-01T09:47:43.973Z,251.10
2022-12-01T09:48:43.991Z,245.00
2022-12-01T09:49:43.958Z,206.90
2022-12-01T09:50:43.954Z,245.40
2022-12-01T09:51:43.921Z,238.60
2022-12-01T09:52:43.931Z,223.10
2022-12-01T09:53:43.901Z,220.80
2022-12-01T09:54:43.933Z,222.70
2022-12-01T09:55:43.880Z,229.10
2022-12-01T09:56:43.895Z,225.00
2022-12-01T09:57:43.891Z,231.90
2022-12-01T09:58:43.869Z,241.70
2022-12-01T09:59:43.842Z,245.30
2022-12-01T10:00:43.968Z,242.00
2022-12-01T10:01:43.919Z,246.60
2022-12-01T10:02:43.848Z,243.10
2022-12-01T10:03:43.827Z,249.20
2022-12-01T10:04:43.800Z,250.80
2022-12-01T10:06:10.165Z,229.50
2022-12-01T10:06:43.768Z,274.80
2022-12-01T10:07:43.822Z,260.80
2022-12-01T10:08:43.767Z,231.90
2022-12-01T10:09:43.765Z,251.90
2022-12-01T10:10:43.730Z,247.60
2022-12-01T10:11:43.735Z,210.50
2022-12-01T10:12:43.709Z,230.90
2022-12-01T10:13:44.003Z,230.40
2022-12-01T10:14:43.699Z,231.90
2022-12-01T10:15:43.705Z,239.10
2022-12-01T10:16:43.740Z,219.70
2022-12-01T10:17:43.677Z,226.40
2022-12-01T10:18:43.651Z,220.80
2022-12-01T10:19:43.654Z,219.70
2022-12-01T10:20:43.612Z,193.10
2022-12-01T10:21:43.634Z,190.20
2022-12-01T10:22:43.596Z,197.60
2022-12-01T10:23:43.602Z,180.40
2022-12-01T10:24:43.593Z,214.80
2022-12-01T10:25:43.619Z,186.30
2022-12-01T10:26:43.555Z,188.30
2022-12-01T10:27:43.563Z,207.10
2022-12-01T10:28:43.531Z,202.40
2022-12-01T10:29:47.445Z,185.10
2022-12-01T10:30:43.514Z,192.30
2022-12-01T10:31:43.585Z,194.90
2022-12-01T10:32:43.490Z,181.30
2022-12-01T10:33:43.513Z,174.70
2022-12-01T10:34:43.491Z,178.90
2022-12-01T10:35:43.487Z,171.70
2022-12-01T10:36:43.449Z,191.30
2022-12-01T10:37:43.537Z,177.10
2022-12-01T10:38:43.433Z,153.30
2022-12-01T10:39:43.440Z,176.50
2022-12-01T10:40:43.459Z,178.40
2022-12-01T10:41:43.411Z,178.90
2022-12-01T10:42:43.394Z,158.10
2022-12-01T10:43:43.393Z,144.50
2022-12-01T10:44:43.376Z,173.90
2022-12-01T10:45:43.477Z,156.70
2022-12-01T10:46:43.390Z,166.70
2022-12-01T10:47:43.346Z,177.20
2022-12-01T10:48:43.326Z,165.20
2022-12-01T10:49:43.360Z,179.70
2022-12-01T10:50:43.301Z,175.70
2022-12-01T10:51:43.312Z,147.90
2022-12-01T10:52:47.834Z,179.60
2022-12-01T10:53:43.290Z,151.80
2022-12-01T10:54:43.268Z,168.30
2022-12-01T10:55:47.786Z,168.70
2022-12-01T10:56:43.235Z,177.30
2022-12-01T10:57:43.253Z,160.60
2022-12-01T10:58:43.232Z,165.60
2022-12-01T10:59:43.232Z,151.30
2022-12-01T11:00:59.180Z,152.80
2022-12-01T11:01:43.307Z,157.30
2022-12-01T11:02:43.338Z,121.70
2022-12-01T11:03:43.249Z,147.50
2022-12-01T11:04:43.209Z,157.30
2022-12-01T11:05:43.173Z,169.20
2022-12-01T11:06:43.131Z,166.00
2022-12-01T11:07:43.243Z,170.00
2022-12-01T11:08:43.106Z,155.00
2022-12-01T11:09:43.115Z,148.20
2022-12-01T11:10:43.110Z,164.30
2022-12-01T11:11:43.099Z,151.90
2022-12-01T11:12:43.068Z,147.90
2022-12-01T11:13:43.077Z,167.50
2022-12-01T11:14:43.047Z,152.80
2022-12-01T11:15:43.054Z,148.80
2022-12-01T11:16:43.210Z,118.00
2022-12-01T11:17:43.035Z,146.30
2022-12-01T11:18:43.027Z,133.80
2022-12-01T11:19:43.153Z,133.00
2022-12-01T11:20:43.124Z,139.60
2022-12-01T11:21:42.997Z,126.60
2022-12-01T11:22:42.977Z,147.80
2022-12-01T11:23:42.966Z,138.40
2022-12-01T11:24:42.936Z,145.00
2022-12-01T11:25:42.951Z,148.30
2022-12-01T11:26:42.912Z,119.60
2022-12-01T11:27:42.926Z,136.30
2022-12-01T11:28:42.920Z,130.00
2022-12-01T11:29:42.908Z,140.30
2022-12-01T11:30:42.873Z,136.60
2022-12-01T11:31:42.963Z,123.20
2022-12-01T11:32:42.847Z,123.60
2022-12-01T11:33:42.870Z,127.40
2022-12-01T11:34:42.845Z,112.70
2022-12-01T11:35:42.848Z,118.60
2022-12-01T11:36:42.814Z,122.70
2022-12-01T11:37:50.475Z,130.20
2022-12-01T11:38:42.801Z,119.60
2022-12-01T11:39:42.806Z,125.20
2022-12-01T11:40:42.798Z,115.80
2022-12-01T11:41:42.793Z,114.80
2022-12-01T11:42:42.747Z,117.80
2022-12-01T11:43:46.726Z,121.40
2022-12-01T11:44:51.476Z,109.60
2022-12-01T11:45:42.770Z,108.40
2022-12-01T11:46:50.451Z,127.60
2022-12-01T11:47:42.731Z,121.90
2022-12-01T11:48:42.703Z,128.40
2022-12-01T11:49:47.081Z,117.40
2022-12-01T11:50:42.669Z,107.00
2022-12-01T11:51:42.676Z,114.80
2022-12-01T11:52:42.670Z,108.70
2022-12-01T11:53:42.692Z,111.70
2022-12-01T11:54:42.636Z,113.80
2022-12-01T11:55:42.641Z,121.60
2022-12-01T11:56:42.612Z,108.20
2022-12-01T11:57:42.613Z,115.10
2022-12-01T11:58:42.616Z,106.10
2022-12-01T11:59:42.600Z,112.60
2022-12-01T12:00:42.557Z,117.10
2022-12-01T12:01:42.573Z,111.90
2022-12-01T12:02:42.578Z,115.10
2022-12-01T12:03:42.583Z,116.60
2022-12-01T12:04:42.541Z,106.80
2022-12-01T12:05:42.533Z,113.10
2022-12-01T12:06:42.524Z,109.00
2022-12-01T12:07:42.575Z,114.70
2022-12-01T12:08:42.550Z,116.50
2022-12-01T12:09:45.202Z,113.00
2022-12-01T12:10:42.482Z,106.20
2022-12-01T12:11:42.460Z,104.80
2022-12-01T12:12:42.424Z,100.60
2022-12-01T12:13:42.440Z,106.80
2022-12-01T12:14:42.409Z,103.70
2022-12-01T12:15:42.522Z,95.80
2022-12-01T12:16:42.406Z,111.50
2022-12-01T12:17:42.453Z,104.70
2022-12-01T12:18:42.365Z,99.80
2022-12-01T12:20:42.355Z,96.50
2022-12-01T12:21:42.356Z,94.30
2022-12-01T12:22:42.359Z,107.30
2022-12-01T12:23:42.417Z,103.40
2022-12-01T12:24:42.302Z,104.80
2022-12-01T12:25:42.313Z,96.50
2022-12-01T12:26:42.280Z,100.30
2022-12-01T12:27:42.296Z,96.10
2022-12-01T12:28:42.272Z,99.20
2022-12-01T12:29:42.269Z,94.10